createdAt,value
2023-04-23T00:02:12.271Z,97545.06
2023-04-23T00:05:16.520Z,97547.09
2023-04-23T00:08:21.674Z,97542.78
2023-04-23T00:11:24.958Z,97549.81
2023-04-23T00:14:28.429Z,97548.53
2023-04-23T00:17:31.434Z,97550.72
2023-04-23T00:20:35.411Z,97547.88
2023-04-23T00:23:40.116Z,97544.97
2023-04-23T00:26:42.799Z,97557.75
2023-04-23T00:29:46.431Z,97541.38
2023-04-23T00:32:49.092Z,97544.41
2023-04-23T00:35:52.579Z,97552.84
2023-04-23T00:38:56.647Z,97552.53
2023-04-23T00:42:00.372Z,97556.66
2023-04-23T00:45:03.390Z,97562.69
2023-04-23T00:48:08.059Z,97566.38
2023-04-23T00:51:12.535Z,97574.16
2023-04-23T00:54:16.699Z,97566.22
2023-04-23T00:57:19.583Z,97570.06
2023-04-23T01:00:22.493Z,97570.06
2023-04-23T01:03:27.441Z,97577.97
2023-04-23T01:06:31.811Z,97576.88
2023-04-23T01:09:36.111Z,97573.09
2023-04-23T01:12:38.913Z,97587.03
2023-04-23T01:15:42.139Z,97573.69
2023-04-23T01:18:44.976Z,97575.47
2023-04-23T01:21:50.726Z,97582.44
2023-04-23T01:24:54.948Z,97587.66
2023-04-23T01:27:58.567Z,97591.50
2023-04-23T01:31:02.640Z,97595.94
2023-04-23T01:34:06.161Z,97586.41
2023-04-23T01:37:09.222Z,97588.31
2023-04-23T01:40:13.763Z,97588.78
2023-04-23T01:43:17.491Z,97596.38
2023-04-23T01:46:22.113Z,97602.44
2023-04-23T01:49:25.165Z,97600.03
2023-04-23T01:52:28.222Z,97588.59
2023-04-23T01:55:33.047Z,97596.66
2023-04-23T01:58:36.320Z,97602.38
2023-04-23T02:01:44.070Z,97603.63
2023-04-23T02:04:48.827Z,97603.47
2023-04-23T02:07:52.692Z,97598.34
2023-04-23T02:10:57.164Z,97612.97
2023-04-23T02:13:59.932Z,97607.56
2023-04-23T02:17:03.454Z,97617.72
2023-04-23T02:20:07.890Z,97627.22
2023-04-23T02:23:10.896Z,97625.16
2023-04-23T02:26:15.003Z,97625.28
2023-04-23T02:29:17.753Z,97625.44
2023-04-23T02:32:20.570Z,97628.56
2023-04-23T02:35:23.981Z,97629.38
2023-04-23T02:38:26.816Z,97621.28
2023-04-23T02:41:31.112Z,97619.78
2023-04-23T02:44:33.970Z,97618.97
2023-04-23T02:47:36.771Z,97611.63
2023-04-23T02:50:39.726Z,97610.69
2023-04-23T02:53:42.479Z,97602.13
2023-04-23T02:56:46.632Z,97602.59
2023-04-23T02:59:50.380Z,97599.91
2023-04-23T03:02:53.226Z,97603.84
2023-04-23T03:05:56.189Z,97611.88
2023-04-23T03:08:58.943Z,97612.28
2023-04-23T03:12:03.018Z,97616.38
2023-04-23T03:15:06.955Z,97616.50
2023-04-23T03:18:09.942Z,97614.53
2023-04-23T03:21:12.908Z,97616.19
2023-04-23T03:24:17.702Z,97616.31
2023-04-23T03:27:21.844Z,97602.72
2023-04-23T03:30:24.747Z,97612.81
2023-04-23T03:33:27.970Z,97597.31
2023-04-23T03:36:30.730Z,97602.78
2023-04-23T03:39:33.476Z,97602.63
2023-04-23T03:42:37.750Z,97608.66
2023-04-23T03:45:40.406Z,97608.09
2023-04-23T03:48:43.086Z,97599.53
2023-04-23T03:51:45.836Z,97602.44
2023-04-23T03:54:48.458Z,97597.59
2023-04-23T03:57:52.610Z,97596.28
2023-04-23T04:00:55.984Z,97602.34
2023-04-23T04:03:58.930Z,97614.72
2023-04-23T04:07:01.971Z,97614.53
2023-04-23T04:10:05.125Z,97625.75
2023-04-23T04:13:09.107Z,97624.94
2023-04-23T04:16:11.880Z,97623.81
2023-04-23T04:19:14.603Z,97616.38
2023-04-23T04:22:17.370Z,97616.59
2023-04-23T04:25:22.184Z,97627.31
2023-04-23T04:28:26.593Z,97625.69
2023-04-23T04:31:29.416Z,97630.22
2023-04-23T04:34:32.084Z,97634.38
2023-04-23T04:37:34.882Z,97630.03
2023-04-23T04:40:37.640Z,97638.78
2023-04-23T04:43:43.713Z,97632.97
2023-04-23T04:46:48.050Z,97627.41
2023-04-23T04:49:50.772Z,97636.09
2023-04-23T04:52:53.472Z,97633.91
2023-04-23T04:55:56.165Z,97638.59
2023-04-23T04:59:00.191Z,97635.22
2023-04-23T05:02:02.988Z,97628.63
2023-04-23T05:05:07.570Z,97629.03
2023-04-23T05:08:10.471Z,97627.94
2023-04-23T05:11:13.213Z,97618.47
2023-04-23T05:14:17.273Z,97623.84
2023-04-23T05:17:19.931Z,97623.47
2023-04-23T05:20:23.038Z,97631.81
2023-04-23T05:23:25.946Z,97629.53
2023-04-23T05:26:28.633Z,97632.19
2023-04-23T05:29:32.719Z,97626.91
2023-04-23T05:32:35.499Z,97639.97
2023-04-23T05:35:38.215Z,97634.94
2023-04-23T05:38:42.200Z,97637.53
2023-04-23T05:41:44.941Z,97631.22
2023-04-23T05:44:49.120Z,97627.44
2023-04-23T05:47:51.973Z,97632.69
2023-04-23T05:50:54.738Z,97648.16
2023-04-23T05:53:57.469Z,97646.44
2023-04-23T05:57:00.889Z,97642.03
2023-04-23T06:00:06.539Z,97639.69
2023-04-23T06:03:09.475Z,97641.97
2023-04-23T06:06:12.860Z,97641.66
2023-04-23T06:09:15.577Z,97643.75
2023-04-23T06:12:19.471Z,97632.84
2023-04-23T06:15:26.930Z,97629.72
2023-04-23T06:18:29.606Z,97636.00
2023-04-23T06:21:32.549Z,97642.75
2023-04-23T06:24:35.287Z,97636.13
2023-04-23T06:27:38.157Z,97629.59
2023-04-23T06:30:42.431Z,97633.28
2023-04-23T06:33:45.388Z,97630.94
2023-04-23T06:36:48.058Z,97630.19
2023-04-23T06:39:50.767Z,97633.25
2023-04-23T06:42:53.478Z,97636.28
2023-04-23T06:45:57.526Z,97627.09
2023-04-23T06:49:00.276Z,97623.47
2023-04-23T06:52:03.127Z,97617.28
2023-04-23T06:55:06.744Z,97616.84
2023-04-23T06:58:09.944Z,97611.44
2023-04-23T07:01:14.443Z,97606.38
2023-04-23T07:04:17.433Z,97605.25
2023-04-23T07:07:20.526Z,97608.34
2023-04-23T07:10:23.351Z,97603.88
2023-04-23T07:13:26.531Z,97606.59
2023-04-23T07:16:33.538Z,97601.91
2023-04-23T07:19:36.479Z,97598.66
2023-04-23T07:22:39.240Z,97596.47
2023-04-23T07:25:42.026Z,97601.31
2023-04-23T07:28:46.424Z,97597.75
2023-04-23T07:31:50.525Z,97595.97
2023-04-23T07:34:53.413Z,97590.56
2023-04-23T07:37:57.922Z,97590.78
2023-04-23T07:41:00.757Z,97590.44
2023-04-23T07:44:04.019Z,97587.38
2023-04-23T07:47:08.177Z,97580.22
2023-04-23T07:50:11.601Z,97588.56
2023-04-23T07:53:14.354Z,97587.94
2023-04-23T07:56:17.220Z,97580.38
2023-04-23T07:59:20.518Z,97576.31
2023-04-23T08:02:26.607Z,97582.88
2023-04-23T08:05:29.612Z,97580.22
2023-04-23T08:08:32.424Z,97582.91
2023-04-23T08:11:35.128Z,97577.50
2023-04-23T08:14:37.880Z,97572.09
2023-04-23T08:17:42.119Z,97563.81
2023-04-23T08:20:45.406Z,97557.44
2023-04-23T08:23:48.185Z,97552.22
2023-04-23T08:26:51.001Z,97554.31
2023-04-23T08:29:53.728Z,97565.22
2023-04-23T08:32:58.410Z,97555.66
2023-04-23T08:36:01.390Z,97559.91
2023-04-23T08:39:04.630Z,97548.66
2023-04-23T08:42:12.500Z,97549.63
2023-04-23T08:45:15.808Z,97544.00
2023-04-23T08:48:21.004Z,97549.97
2023-04-23T08:51:27.053Z,97547.31
2023-04-23T08:54:33.219Z,97550.91
2023-04-23T08:57:36.735Z,97545.88
2023-04-23T09:00:39.784Z,97536.69
2023-04-23T09:03:43.977Z,97535.09
2023-04-23T09:06:46.722Z,97528.50
2023-04-23T09:09:49.491Z,97527.53
2023-04-23T09:13:14.297Z,97524.47
2023-04-23T09:16:17.296Z,97518.94
2023-04-23T09:19:21.598Z,97514.19
2023-04-23T09:22:41.045Z,97504.50
2023-04-23T09:25:44.020Z,97503.56
2023-04-23T09:28:50.928Z,97501.31
2023-04-23T09:31:55.396Z,97505.09
2023-04-23T09:34:59.767Z,97498.78
2023-04-23T09:38:05.991Z,97487.06
2023-04-23T09:41:24.588Z,97481.34
2023-04-23T09:44:29.593Z,97483.53
2023-04-23T09:47:34.509Z,97475.47
2023-04-23T09:50:40.613Z,97473.78
2023-04-23T09:53:45.850Z,97466.88
2023-04-23T09:56:51.266Z,97461.38
2023-04-23T10:00:00.500Z,97465.09
2023-04-23T10:03:14.290Z,97462.97
2023-04-23T10:06:39.561Z,97454.94
2023-04-23T10:09:42.935Z,97451.88
2023-04-23T10:12:54.988Z,97448.81
2023-04-23T10:16:07.091Z,97436.16
2023-04-23T10:19:16.094Z,97434.34
2023-04-23T10:22:22.970Z,97433.66
2023-04-23T10:25:26.537Z,97437.28
2023-04-23T10:28:32.205Z,97432.63
2023-04-23T10:31:36.318Z,97430.38
2023-04-23T10:34:41.585Z,97425.41
2023-04-23T10:37:46.522Z,97413.66
2023-04-23T10:40:51.670Z,97414.22
2023-04-23T10:43:54.449Z,97407.44
2023-04-23T10:47:01.676Z,97403.56
2023-04-23T10:50:19.948Z,97398.94
2023-04-23T10:53:25.390Z,97394.16
2023-04-23T10:56:29.339Z,97387.44
2023-04-23T10:59:34.934Z,97388.53
2023-04-23T11:02:45.243Z,97393.66
2023-04-23T11:05:48.169Z,97384.66
2023-04-23T11:08:57.426Z,97385.47
2023-04-23T11:12:01.351Z,97377.19
2023-04-23T11:15:14.980Z,97372.84
2023-04-23T11:18:17.755Z,97367.41
2023-04-23T11:21:20.688Z,97373.34
2023-04-23T11:24:25.066Z,97374.06
2023-04-23T11:27:30.217Z,97369.84
2023-04-23T11:30:33.671Z,97373.88
2023-04-23T11:33:37.113Z,97362.69
2023-04-23T11:36:40.869Z,97344.75
2023-04-23T11:39:47.430Z,97342.56
2023-04-23T11:42:51.936Z,97348.88
2023-04-23T11:45:57.212Z,97333.38
2023-04-23T11:49:01.113Z,97328.00
2023-04-23T11:52:04.324Z,97316.38
2023-04-23T11:55:09.401Z,97314.34
2023-04-23T11:58:12.177Z,97310.09
2023-04-23T12:01:14.888Z,97311.06
2023-04-23T12:04:20.920Z,97296.38
2023-04-23T12:07:33.388Z,97304.47
2023-04-23T12:10:44.186Z,97288.75
2023-04-23T12:13:46.942Z,97285.28
2023-04-23T12:16:52.296Z,97285.88
2023-04-23T12:19:56.183Z,97276.56
2023-04-23T12:23:05.667Z,97280.00
2023-04-23T12:26:13.741Z,97262.59
2023-04-23T12:29:19.303Z,97266.41
2023-04-23T12:32:26.975Z,97250.16
2023-04-23T12:35:40.454Z,97254.75
2023-04-23T12:38:43.589Z,97244.84
2023-04-23T12:41:47.718Z,97237.94
2023-04-23T12:44:51.628Z,97228.19
2023-04-23T12:47:54.867Z,97227.44
2023-04-23T12:50:57.716Z,97221.66
2023-04-23T12:54:00.387Z,97219.56
2023-04-23T12:57:05.614Z,97214.22
2023-04-23T13:00:11.166Z,97214.94
2023-04-23T13:03:15.603Z,97207.91
2023-04-23T13:06:18.529Z,97200.31
2023-04-23T13:09:21.826Z,97199.41
2023-04-23T13:12:26.444Z,97193.16
2023-04-23T13:15:29.147Z,97176.53
2023-04-23T13:18:31.851Z,97167.31
2023-04-23T13:21:34.719Z,97154.56
2023-04-23T13:24:37.514Z,97163.97
2023-04-23T13:27:41.820Z,97153.09
2023-04-23T13:30:44.603Z,97144.31
2023-04-23T13:33:47.297Z,97139.13
2023-04-23T13:36:50.165Z,97134.97
2023-04-23T13:39:53.207Z,97126.91
2023-04-23T13:42:57.564Z,97115.75
2023-04-23T13:46:01.399Z,97103.25
2023-04-23T13:49:04.590Z,97115.63
2023-04-23T13:52:08.970Z,97114.19
2023-04-23T13:55:12.047Z,97099.59
2023-04-23T13:58:16.500Z,97098.28
2023-04-23T14:01:19.359Z,97081.47
2023-04-23T14:04:23.952Z,97087.91
2023-04-23T14:07:26.819Z,97078.38
2023-04-23T14:10:29.671Z,97072.03
2023-04-23T14:13:33.835Z,97076.63
2023-04-23T14:16:36.625Z,97069.97
2023-04-23T14:19:39.617Z,97070.00
2023-04-23T14:22:43.227Z,97063.72
2023-04-23T14:25:47.735Z,97054.34
2023-04-23T14:28:53.190Z,97044.09
2023-04-23T14:31:56.145Z,97048.34
2023-04-23T14:34:58.947Z,97034.81
2023-04-23T14:38:01.761Z,97023.94
2023-04-23T14:41:04.537Z,97023.50
2023-04-23T14:44:08.792Z,97025.34
2023-04-23T14:47:11.932Z,97024.84
2023-04-23T14:50:17.004Z,97011.13
2023-04-23T14:53:19.949Z,97014.09
2023-04-23T14:56:22.752Z,97026.28
2023-04-23T14:59:26.841Z,97002.63
2023-04-23T15:02:30.196Z,97000.84
2023-04-23T15:05:33.099Z,97006.09
2023-04-23T15:08:35.947Z,97020.69
2023-04-23T15:11:39.011Z,97018.63
2023-04-23T15:14:45.148Z,97022.66
2023-04-23T15:17:48.203Z,97015.25
2023-04-23T15:20:51.047Z,97006.22
2023-04-23T15:23:56.372Z,97009.63
2023-04-23T15:26:59.540Z,96997.75
2023-04-23T15:30:03.898Z,97005.69
2023-04-23T15:33:06.734Z,97006.41
2023-04-23T15:36:10.230Z,97005.22
2023-04-23T15:39:13.100Z,97012.38
2023-04-23T15:42:18.145Z,97011.84
2023-04-23T15:45:22.372Z,97022.50
2023-04-23T15:48:27.043Z,97048.38
2023-04-23T15:51:32.025Z,97052.22
2023-04-23T15:54:34.834Z,97042.78
2023-04-23T15:57:37.527Z,97016.03
2023-04-23T16:00:41.670Z,97020.88
2023-04-23T16:03:53.763Z,97024.53
2023-04-23T16:07:07.056Z,97021.09
2023-04-23T16:10:11.388Z,97027.81
2023-04-23T16:13:14.392Z,97020.38
2023-04-23T16:16:18.680Z,97023.78
2023-04-23T16:19:21.503Z,97033.03
2023-04-23T16:22:25.584Z,97026.31
2023-04-23T16:25:28.297Z,97036.97
2023-04-23T16:28:31.023Z,97043.28
2023-04-23T16:31:35.675Z,97070.75
2023-04-23T16:34:38.396Z,97124.22
2023-04-23T16:37:41.155Z,97164.75
2023-04-23T16:40:47.192Z,97190.75
2023-04-23T16:43:50.053Z,97168.41
2023-04-23T16:46:54.262Z,97120.38
2023-04-23T16:49:56.984Z,97053.88
2023-04-23T16:52:59.711Z,97080.13
2023-04-23T16:56:02.552Z,97078.31
2023-04-23T16:59:05.630Z,97076.81
2023-04-23T17:02:09.987Z,97078.13
2023-04-23T17:05:12.856Z,97083.66
2023-04-23T17:08:15.560Z,97083.50
2023-04-23T17:11:18.451Z,97088.09
2023-04-23T17:14:21.219Z,97087.78
2023-04-23T17:17:25.599Z,97080.34
2023-04-23T17:20:28.952Z,97086.72
2023-04-23T17:23:31.870Z,97094.25
2023-04-23T17:26:34.727Z,97083.91
2023-04-23T17:29:37.586Z,97098.22
2023-04-23T17:32:41.753Z,97098.09
2023-04-23T17:35:46.723Z,97094.84
2023-04-23T17:38:49.519Z,97082.69
2023-04-23T17:41:52.433Z,97091.75
2023-04-23T17:44:55.196Z,97089.56
2023-04-23T17:47:59.404Z,97088.78
2023-04-23T17:51:02.212Z,97089.88
2023-04-23T17:54:05.504Z,97091.53
2023-04-23T17:57:09.715Z,97091.34
2023-04-23T18:00:14.437Z,97092.31
2023-04-23T18:03:20.392Z,97091.84
2023-04-23T18:06:23.829Z,97091.84
2023-04-23T18:09:26.898Z,97098.06
2023-04-23T18:12:30.207Z,97103.78
2023-04-23T18:15:33.216Z,97110.84
2023-04-23T18:18:37.303Z,97111.16
2023-04-23T18:21:40.618Z,97117.03
2023-04-23T18:24:43.472Z,97109.09
2023-04-23T18:27:46.353Z,97110.41
2023-04-23T18:30:49.464Z,97101.38
2023-04-23T18:33:59.574Z,97098.09
2023-04-23T18:37:04.936Z,97112.75
2023-04-23T18:40:08.680Z,97118.25
2023-04-23T18:43:11.603Z,97124.66
2023-04-23T18:46:14.482Z,97133.38
2023-04-23T18:49:40.052Z,97142.91
2023-04-23T18:52:42.925Z,97154.34
2023-04-23T18:55:45.657Z,97156.41
2023-04-23T18:58:48.404Z,97159.59
2023-04-23T19:01:51.311Z,97161.50
2023-04-23T19:04:55.577Z,97176.25
2023-04-23T19:07:58.363Z,97182.28
2023-04-23T19:11:01.152Z,97197.69
2023-04-23T19:14:03.986Z,97188.13
2023-04-23T19:17:06.655Z,97187.66
2023-04-23T19:20:12.809Z,97187.81
2023-04-23T19:23:15.982Z,97198.75
2023-04-23T19:26:18.947Z,97198.91
2023-04-23T19:29:23.275Z,97196.81
2023-04-23T19:32:27.268Z,97205.91
2023-04-23T19:35:31.520Z,97213.66
2023-04-23T19:38:34.252Z,97213.66
2023-04-23T19:41:37.118Z,97219.06
2023-04-23T19:44:39.895Z,97226.63
2023-04-23T19:47:42.666Z,97218.53
2023-04-23T19:50:47.928Z,97217.59
2023-04-23T19:53:51.186Z,97216.66
2023-04-23T19:56:53.851Z,97213.34
2023-04-23T19:59:56.704Z,97219.81
2023-04-23T20:02:59.477Z,97222.09
2023-04-23T20:06:03.673Z,97220.78
2023-04-23T20:09:08.039Z,97224.59
2023-04-23T20:12:10.983Z,97221.75
2023-04-23T20:15:13.813Z,97217.13
2023-04-23T20:18:17.228Z,97220.16
2023-04-23T20:21:21.336Z,97208.94
2023-04-23T20:24:24.102Z,97207.34
2023-04-23T20:27:27.254Z,97212.88
2023-04-23T20:30:29.913Z,97216.22
2023-04-23T20:33:32.794Z,97222.38
2023-04-23T20:36:38.832Z,97214.28
2023-04-23T20:39:41.810Z,97223.34
2023-04-23T20:42:46.379Z,97228.09
2023-04-23T20:45:49.558Z,97224.97
2023-04-23T20:48:53.773Z,97221.63
2023-04-23T20:51:57.956Z,97216.72
2023-04-23T20:55:00.765Z,97224.47
2023-04-23T20:58:03.640Z,97218.94
2023-04-23T21:01:07.606Z,97229.06
2023-04-23T21:04:10.666Z,97228.59
2023-04-23T21:07:14.906Z,97244.16
2023-04-23T21:10:17.664Z,97237.47
2023-04-23T21:13:20.735Z,97242.56
2023-04-23T21:16:23.481Z,97247.63
2023-04-23T21:19:26.272Z,97251.13
2023-04-23T21:22:31.584Z,97243.66
2023-04-23T21:25:35.259Z,97233.19
2023-04-23T21:28:38.207Z,97222.28
2023-04-23T21:31:44.655Z,97230.03
2023-04-23T21:34:47.490Z,97219.88
2023-04-23T21:37:51.486Z,97229.84
2023-04-23T21:40:54.423Z,97218.16
2023-04-23T21:43:57.257Z,97213.22
2023-04-23T21:47:00.171Z,97196.91
2023-04-23T21:50:03.148Z,97216.09
2023-04-23T21:53:07.338Z,97221.78
2023-04-23T21:56:10.567Z,97234.13
2023-04-23T21:59:13.340Z,97237.78
2023-04-23T22:02:16.108Z,97224.16
2023-04-23T22:05:20.736Z,97227.78
2023-04-23T22:08:25.873Z,97230.31
2023-04-23T22:11:30.450Z,97232.53
2023-04-23T22:14:33.509Z,97227.91
2023-04-23T22:17:38.330Z,97226.16
2023-04-23T22:20:43.031Z,97228.97
2023-04-23T22:23:47.205Z,97225.84
2023-04-23T22:26:49.984Z,97211.91
2023-04-23T22:29:53.247Z,97217.72
2023-04-23T22:32:56.048Z,97215.69
2023-04-23T22:35:59.867Z,97213.13
2023-04-23T22:39:05.700Z,97218.19
2023-04-23T22:42:08.428Z,97221.97
2023-04-23T22:45:11.639Z,97213.41
2023-04-23T22:48:14.607Z,97211.66
2023-04-23T22:51:18.627Z,97205.72
2023-04-23T22:54:23.028Z,97204.63
2023-04-23T22:57:26.126Z,97200.81
2023-04-23T23:00:29.041Z,97200.22
2023-04-23T23:03:31.940Z,97198.47
2023-04-23T23:06:34.754Z,97194.63
2023-04-23T23:09:39.022Z,97197.16
2023-04-23T23:12:41.809Z,97193.22
2023-04-23T23:15:44.535Z,97198.31
2023-04-23T23:18:47.554Z,97200.66
2023-04-23T23:21:50.639Z,97192.25
2023-04-23T23:24:55.012Z,97195.91
2023-04-23T23:27:57.815Z,97200.16
2023-04-23T23:31:00.568Z,97193.03
2023-04-23T23:34:03.549Z,97192.59
2023-04-23T23:37:06.313Z,97192.13
2023-04-23T23:40:11.682Z,97186.13
2023-04-23T23:43:14.445Z,97178.31
2023-04-23T23:46:18.459Z,97179.78
2023-04-23T23:49:21.565Z,97171.84
2023-04-23T23:52:24.373Z,97176.91
2023-04-23T23:55:28.514Z,97176.59
2023-04-23T23:58:31.553Z,97171.84
